Time;durP1;ratioP1;P1;durP2;ratioP2;P2;SDS_P1;SDS_P2;PMS_P1;PMS_P2;Temp;Humidity;BMP_temperature;BMP_pressure;BME280_temperature;BME280_humidity;BME280_pressure;Samples;Min_cycle;Max_cycle;Signal;HPM_P1;HPM_P2
2020/12/11 00:01:33;;;;;;;82.15;25.52;;;1.50;97.10;;;;;;4957880;28;20170;-67
2020/12/11 00:03:59;;;;;;;92.72;26.98;;;1.50;97.10;;;;;;4956212;28;20032;-67
2020/12/11 00:06:25;;;;;;;67.63;24.60;;;1.50;97.10;;;;;;4956408;28;20122;-67
2020/12/11 00:08:51;;;;;;;72.00;24.63;;;1.50;97.00;;;;;;4957673;28;20027;-66
2020/12/11 00:11:17;;;;;;;69.47;26.55;;;1.50;97.00;;;;;;4956569;28;20051;-67
2020/12/11 00:13:42;;;;;;;72.70;24.05;;;1.50;97.10;;;;;;4967914;28;20594;-67
2020/12/11 00:16:08;;;;;;;71.32;23.73;;;1.50;97.10;;;;;;4956033;28;20462;-66
2020/12/11 00:18:36;;;;;;;71.63;23.75;;;1.50;97.10;;;;;;4956925;28;20173;-67
2020/12/11 00:21:02;;;;;;;67.85;24.33;;;1.50;97.10;;;;;;4956718;28;20038;-66
2020/12/11 00:23:28;;;;;;;69.60;25.48;;;1.50;97.00;;;;;;4956242;28;20030;-66
2020/12/11 00:26:00;;;;;;;70.68;23.63;;;1.50;97.00;;;;;;4954918;28;20054;-67
2020/12/11 00:28:27;;;;;;;66.05;24.50;;;1.60;97.10;;;;;;4956435;28;20097;-66
2020/12/11 00:30:53;;;;;;;62.38;24.35;;;1.50;97.00;;;;;;4958870;28;20087;-67
2020/12/11 00:33:20;;;;;;;64.88;23.95;;;1.50;97.00;;;;;;4957208;28;20039;-67
2020/12/11 00:35:46;;;;;;;63.88;23.65;;;1.50;97.00;;;;;;4957218;28;20449;-67
2020/12/11 00:38:11;;;;;;;65.82;24.40;;;1.60;97.00;;;;;;4957449;28;20058;-67
2020/12/11 00:40:37;;;;;;;67.97;24.08;;;1.50;97.00;;;;;;4956555;28;20383;-67
2020/12/11 00:43:03;;;;;;;66.03;23.65;;;1.60;97.00;;;;;;4956409;28;20126;-67
2020/12/11 00:45:29;;;;;;;62.13;23.83;;;1.50;97.00;;;;;;4957071;28;20066;-66
2020/12/11 00:47:55;;;;;;;70.43;23.70;;;1.50;97.00;;;;;;4954917;28;22015;-67
2020/12/11 00:50:20;;;;;;;66.22;25.10;;;1.60;97.00;;;;;;4954327;28;20655;-68
2020/12/11 00:52:46;;;;;;;68.25;24.25;;;1.60;97.00;;;;;;4955657;28;20073;-68
2020/12/11 00:55:11;;;;;;;72.65;24.38;;;1.60;97.00;;;;;;4957746;28;20465;-68
2020/12/11 00:57:37;;;;;;;57.55;22.33;;;1.50;97.10;;;;;;4954955;28;20499;-67
2020/12/11 01:00:05;;;;;;;70.75;24.58;;;1.60;97.10;;;;;;4956694;28;20067;-67
2020/12/11 01:02:31;;;;;;;71.13;26.60;;;1.60;97.10;;;;;;4954771;28;20025;-67
2020/12/11 01:04:56;;;;;;;65.95;23.08;;;1.50;97.10;;;;;;4956944;28;20035;-67
2020/12/11 01:07:22;;;;;;;71.28;24.63;;;1.60;97.10;;;;;;4957184;28;20562;-68
2020/12/11 01:09:47;;;;;;;63.78;24.00;;;1.60;97.10;;;;;;4958166;28;20404;-67
2020/12/11 01:12:13;;;;;;;66.25;23.75;;;1.60;97.10;;;;;;4958461;28;20088;-67
2020/12/11 01:14:39;;;;;;;63.20;22.80;;;1.50;97.00;;;;;;4956092;28;20030;-67
2020/12/11 01:17:04;;;;;;;67.55;22.60;;;1.60;97.10;;;;;;4956658;28;20522;-68
2020/12/11 01:19:30;;;;;;;72.05;24.85;;;1.60;97.10;;;;;;4959695;28;20039;-67
2020/12/11 01:21:56;;;;;;;64.40;23.92;;;1.60;97.10;;;;;;4954879;28;20495;-67
2020/12/11 01:24:21;;;;;;;71.05;25.27;;;1.60;97.10;;;;;;4960904;28;20113;-68
2020/12/11 01:26:47;;;;;;;59.53;22.63;;;1.60;97.10;;;;;;4960602;28;20037;-67
2020/12/11 01:29:13;;;;;;;73.10;23.77;;;1.50;97.10;;;;;;4959874;28;20142;-67
2020/12/11 01:31:38;;;;;;;57.80;22.23;;;1.60;97.10;;;;;;4963954;28;20046;-67
2020/12/11 01:34:04;;;;;;;71.97;24.15;;;1.60;97.20;;;;;;4963789;28;20054;-67
2020/12/11 01:36:29;;;;;;;65.35;22.80;;;1.60;97.20;;;;;;4964151;28;20408;-67
2020/12/11 01:38:55;;;;;;;68.68;24.60;;;1.60;97.20;;;;;;4961312;28;20074;-68
2020/12/11 01:41:21;;;;;;;61.78;25.00;;;1.60;97.20;;;;;;4962978;28;20061;-67
2020/12/11 01:43:47;;;;;;;78.78;24.40;;;1.60;97.10;;;;;;4953403;28;20110;-68
2020/12/11 01:46:17;;;;;;;67.22;23.65;;;1.60;97.20;;;;;;4955428;28;20031;-67
2020/12/11 01:48:44;;;;;;;71.50;23.38;;;1.60;97.20;;;;;;4964938;28;20037;-67
2020/12/11 01:51:12;;;;;;;74.80;24.48;;;1.50;97.20;;;;;;4965249;28;20291;-67
2020/12/11 01:53:43;;;;;;;71.32;23.98;;;1.60;97.20;;;;;;4965198;28;20031;-68
2020/12/11 01:56:14;;;;;;;68.70;23.13;;;1.50;97.20;;;;;;4960848;28;20054;-67
2020/12/11 01:58:42;;;;;;;66.65;23.15;;;1.60;97.20;;;;;;4963717;28;20126;-67
2020/12/11 02:01:09;;;;;;;66.30;23.45;;;1.50;97.20;;;;;;4964436;28;20487;-67
2020/12/11 02:03:37;;;;;;;69.57;22.92;;;1.50;97.20;;;;;;4955160;28;20428;-67
2020/12/11 02:06:02;;;;;;;68.65;23.65;;;1.50;97.20;;;;;;4949729;28;20206;-67
2020/12/11 02:08:29;;;;;;;73.50;23.33;;;1.50;97.30;;;;;;4960534;28;20249;-67
2020/12/11 02:10:54;;;;;;;66.80;22.50;;;1.50;97.20;;;;;;4957254;28;20463;-67
2020/12/11 02:13:20;;;;;;;71.70;23.63;;;1.50;97.20;;;;;;4961481;28;20121;-67
2020/12/11 02:15:46;;;;;;;67.03;22.83;;;1.50;97.20;;;;;;4959752;28;20027;-67
2020/12/11 02:18:11;;;;;;;70.70;22.83;;;1.50;97.30;;;;;;4963521;28;20078;-68
2020/12/11 02:20:37;;;;;;;66.95;22.60;;;1.50;97.30;;;;;;4963984;28;20345;-67
2020/12/11 02:23:02;;;;;;;70.60;22.60;;;1.50;97.30;;;;;;4955974;28;20093;-68
2020/12/11 02:25:28;;;;;;;70.25;22.75;;;1.50;97.30;;;;;;4951078;28;20424;-67
2020/12/11 02:27:53;;;;;;;65.00;22.70;;;1.40;97.30;;;;;;4960205;28;20123;-68
2020/12/11 02:30:19;;;;;;;70.22;22.77;;;1.40;97.30;;;;;;4964244;28;20038;-67
2020/12/11 02:32:45;;;;;;;70.70;23.25;;;1.50;97.30;;;;;;4958360;28;20445;-67
2020/12/11 02:35:10;;;;;;;61.15;21.17;;;1.50;97.30;;;;;;4958299;28;20026;-68
2020/12/11 02:37:37;;;;;;;61.33;22.00;;;1.50;97.30;;;;;;4956139;28;20031;-68
2020/12/11 02:40:04;;;;;;;58.13;19.45;;;1.50;97.30;;;;;;4964714;28;20400;-67
2020/12/11 02:42:29;;;;;;;52.67;21.73;;;1.40;97.30;;;;;;4967578;28;20022;-68
2020/12/11 02:44:55;;;;;;;64.15;21.60;;;1.40;97.30;;;;;;4955366;28;20038;-67
2020/12/11 02:47:21;;;;;;;61.45;21.58;;;1.40;97.40;;;;;;4965991;28;20140;-68
2020/12/11 02:49:46;;;;;;;61.78;21.35;;;1.40;97.40;;;;;;4968089;28;20440;-68
2020/12/11 02:52:13;;;;;;;58.17;22.48;;;1.40;97.50;;;;;;4966451;28;20402;-68
2020/12/11 02:54:38;;;;;;;63.60;22.15;;;1.40;97.40;;;;;;4966899;28;20038;-68
2020/12/11 02:57:04;;;;;;;57.55;21.13;;;1.40;97.50;;;;;;4961790;28;20456;-68
2020/12/11 02:59:29;;;;;;;63.67;21.15;;;1.40;97.50;;;;;;4962310;28;20038;-68
2020/12/11 03:01:55;;;;;;;57.95;19.73;;;1.40;97.50;;;;;;4962295;28;20026;-67
2020/12/11 03:04:20;;;;;;;58.85;21.17;;;1.40;97.50;;;;;;4964050;28;20038;-67
2020/12/11 03:06:46;;;;;;;58.67;21.45;;;1.40;97.60;;;;;;4960174;28;20503;-67
2020/12/11 03:09:11;;;;;;;52.90;20.48;;;1.40;97.60;;;;;;4967643;28;20034;-67
2020/12/11 03:11:37;;;;;;;56.70;20.75;;;1.40;97.60;;;;;;4967475;28;20035;-67
2020/12/11 03:14:03;;;;;;;58.53;20.27;;;1.40;97.60;;;;;;4963950;28;20408;-68
2020/12/11 03:16:28;;;;;;;60.58;20.70;;;1.40;97.60;;;;;;4967288;28;20054;-67
2020/12/11 03:18:54;;;;;;;54.95;19.77;;;1.40;97.60;;;;;;4967451;28;20061;-67
2020/12/11 03:21:19;;;;;;;60.35;21.42;;;1.40;97.60;;;;;;4965671;28;20046;-68
2020/12/11 03:23:45;;;;;;;61.05;21.80;;;1.40;97.60;;;;;;4967257;28;20095;-67
2020/12/11 03:26:10;;;;;;;55.08;20.83;;;1.40;97.50;;;;;;4957223;28;20023;-67
2020/12/11 03:28:36;;;;;;;51.47;21.08;;;1.40;97.50;;;;;;4964403;28;20488;-67
2020/12/11 03:31:02;;;;;;;57.35;21.50;;;1.40;97.50;;;;;;4967395;28;20027;-68
2020/12/11 03:33:28;;;;;;;58.35;21.20;;;1.40;97.50;;;;;;4964362;28;20034;-67
2020/12/11 03:35:54;;;;;;;54.47;21.15;;;1.40;97.50;;;;;;4965084;28;20034;-67
2020/12/11 03:38:20;;;;;;;59.72;21.23;;;1.40;97.50;;;;;;4964225;28;20088;-68
2020/12/11 03:40:46;;;;;;;67.13;21.63;;;1.40;97.50;;;;;;4966818;28;20061;-67
2020/12/11 03:43:12;;;;;;;56.35;21.55;;;1.40;97.50;;;;;;4962358;28;20548;-67
2020/12/11 03:45:37;;;;;;;56.70;22.77;;;1.40;97.40;;;;;;4964454;28;20427;-67
2020/12/11 03:48:03;;;;;;;60.03;22.27;;;1.40;97.40;;;;;;4967148;28;20031;-67
2020/12/11 03:50:29;;;;;;;60.17;21.42;;;1.40;97.40;;;;;;4965977;28;20049;-68
2020/12/11 03:52:55;;;;;;;65.95;20.67;;;1.40;97.40;;;;;;4963473;28;20574;-67
2020/12/11 03:55:20;;;;;;;54.22;20.42;;;1.50;97.40;;;;;;4966504;28;20030;-67
2020/12/11 03:57:46;;;;;;;60.53;21.63;;;1.40;97.30;;;;;;4957325;28;20502;-68
2020/12/11 04:00:11;;;;;;;54.80;20.88;;;1.40;97.30;;;;;;4966525;28;20117;-67
2020/12/11 04:02:37;;;;;;;54.95;21.50;;;1.50;97.30;;;;;;4966342;28;20030;-67
2020/12/11 04:05:04;;;;;;;54.50;20.55;;;1.50;97.30;;;;;;4965905;28;20163;-67
2020/12/11 04:07:30;;;;;;;49.35;20.92;;;1.50;97.30;;;;;;4959924;28;20555;-67
2020/12/11 04:09:55;;;;;;;59.10;22.15;;;1.50;97.20;;;;;;4966132;28;20115;-67
2020/12/11 04:12:21;;;;;;;54.63;22.83;;;1.50;97.20;;;;;;4958728;28;20141;-67
2020/12/11 04:14:46;;;;;;;48.03;20.75;;;1.60;97.20;;;;;;4961990;28;20053;-67
2020/12/11 04:17:12;;;;;;;54.70;22.65;;;1.50;97.10;;;;;;4964693;28;20034;-67
2020/12/11 04:19:38;;;;;;;52.05;21.98;;;1.50;97.10;;;;;;4966184;28;20031;-66
2020/12/11 04:22:03;;;;;;;53.78;21.42;;;1.60;97.10;;;;;;4964811;28;20507;-67
2020/12/11 04:24:29;;;;;;;54.88;22.60;;;1.50;97.00;;;;;;4965517;28;20110;-68
2020/12/11 04:26:54;;;;;;;54.33;21.77;;;1.50;97.00;;;;;;4958644;28;20126;-67
2020/12/11 04:29:20;;;;;;;52.72;21.92;;;1.50;97.00;;;;;;4964705;28;20490;-67
2020/12/11 04:31:54;;;;;;;56.80;22.50;;;1.50;96.90;;;;;;4965115;28;20039;-67
2020/12/11 04:34:19;;;;;;;50.63;20.75;;;1.50;96.90;;;;;;4965488;28;20042;-68
2020/12/11 04:36:49;;;;;;;48.75;21.88;;;1.50;96.90;;;;;;4964949;28;20058;-67
2020/12/11 04:39:15;;;;;;;56.10;22.83;;;1.50;96.90;;;;;;4952171;28;20063;-67
2020/12/11 04:41:43;;;;;;;61.88;21.52;;;1.50;96.90;;;;;;4963476;28;20112;-67
2020/12/11 04:44:09;;;;;;;57.08;21.75;;;1.50;96.90;;;;;;4958272;28;20157;-67
2020/12/11 04:46:35;;;;;;;53.78;22.13;;;1.50;96.90;;;;;;4952843;28;20110;-67
2020/12/11 04:49:01;;;;;;;58.53;23.92;;;1.50;96.90;;;;;;4961322;28;20035;-68
2020/12/11 04:51:31;;;;;;;59.22;23.80;;;1.50;96.90;;;;;;4966525;28;20353;-67
2020/12/11 04:53:58;;;;;;;51.83;22.23;;;1.50;96.90;;;;;;4965342;28;20078;-68
2020/12/11 04:56:25;;;;;;;58.05;23.08;;;1.50;96.90;;;;;;4960437;28;20031;-67
2020/12/11 04:58:52;;;;;;;57.80;23.05;;;1.40;96.80;;;;;;4951815;28;20364;-67
2020/12/11 05:01:29;;;;;;;61.22;23.08;;;1.40;96.80;;;;;;4949816;28;20107;-66
2020/12/11 05:03:56;;;;;;;56.40;22.10;;;1.50;96.90;;;;;;4951210;28;20121;-66
2020/12/11 05:06:22;;;;;;;57.33;22.80;;;1.50;96.90;;;;;;4953311;28;20042;-66
2020/12/11 05:08:48;;;;;;;65.07;22.88;;;1.40;96.80;;;;;;4952976;28;20134;-66
2020/12/11 05:11:26;;;;;;;59.38;22.95;;;1.50;96.90;;;;;;4950663;28;20031;-66
2020/12/11 05:13:52;;;;;;;62.20;22.65;;;1.40;96.90;;;;;;4950762;28;20026;-66
2020/12/11 05:16:19;;;;;;;58.17;21.40;;;1.40;96.90;;;;;;4949806;28;20136;-67
2020/12/11 05:18:45;;;;;;;50.53;22.27;;;1.50;96.90;;;;;;4951731;28;20100;-66
2020/12/11 05:21:22;;;;;;;56.22;22.13;;;1.40;96.80;;;;;;4958271;28;20439;-67
2020/12/11 05:24:08;;;;;;;54.38;22.45;;;1.40;96.80;;;;;;4956114;28;20483;-66
2020/12/11 05:26:35;;;;;;;57.55;22.83;;;1.50;96.80;;;;;;4963747;28;20051;-66
2020/12/11 05:29:03;;;;;;;63.08;23.92;;;1.40;96.80;;;;;;4958203;28;20027;-66
2020/12/11 05:31:29;;;;;;;59.40;25.33;;;1.40;96.70;;;;;;4948380;28;20075;-66
2020/12/11 05:34:12;;;;;;;60.67;22.95;;;1.40;96.80;;;;;;4944679;28;20498;-66
2020/12/11 05:36:42;;;;;;;64.05;23.42;;;1.50;96.80;;;;;;4938215;28;20067;-66
2020/12/11 05:39:08;;;;;;;68.68;22.92;;;1.50;96.70;;;;;;4933660;28;20024;-67
2020/12/11 05:41:35;;;;;;;59.15;22.70;;;1.50;96.70;;;;;;4944037;28;20034;-67
2020/12/11 05:44:01;;;;;;;46.03;19.33;;;1.50;96.70;;;;;;4940137;28;20442;-67
2020/12/11 05:46:31;;;;;;;59.33;23.70;;;1.50;96.60;;;;;;4938130;28;20122;-66
2020/12/11 05:48:57;;;;;;;62.42;23.00;;;1.50;96.70;;;;;;4930781;28;20167;-67
2020/12/11 05:51:25;;;;;;;60.72;23.23;;;1.50;96.60;;;;;;4943782;28;20137;-67
2020/12/11 05:53:53;;;;;;;54.47;24.05;;;1.50;96.60;;;;;;4944127;28;20039;-67
2020/12/11 05:56:21;;;;;;;58.63;22.98;;;1.50;96.50;;;;;;4938330;28;20503;-66
2020/12/11 05:58:50;;;;;;;61.85;23.08;;;1.50;96.60;;;;;;4928828;28;20095;-67
2020/12/11 06:01:21;;;;;;;59.95;23.15;;;1.50;96.50;;;;;;4937303;28;20023;-67
2020/12/11 06:03:47;;;;;;;59.70;23.55;;;1.50;96.50;;;;;;4935190;28;20038;-67
2020/12/11 06:06:17;;;;;;;61.05;24.30;;;1.60;96.40;;;;;;4934769;28;20118;-66
2020/12/11 06:08:44;;;;;;;56.55;22.38;;;1.50;96.40;;;;;;4941278;28;20046;-67
2020/12/11 06:11:20;;;;;;;60.80;24.95;;;1.50;96.30;;;;;;4937942;28;20231;-67
2020/12/11 06:13:56;;;;;;;59.45;25.10;;;1.50;96.40;;;;;;4936699;28;20043;-67
2020/12/11 06:16:23;;;;;;;63.90;24.65;;;1.50;96.40;;;;;;4943893;28;20118;-67
2020/12/11 06:18:58;;;;;;;55.40;23.38;;;1.50;96.40;;;;;;4944498;28;20212;-67
2020/12/11 06:21:25;;;;;;;63.28;22.83;;;1.50;96.40;;;;;;4942180;28;20020;-67
2020/12/11 06:23:50;;;;;;;59.63;22.98;;;1.50;96.40;;;;;;4943885;28;20075;-67
2020/12/11 06:26:17;;;;;;;59.63;23.35;;;1.50;96.40;;;;;;4942466;28;20074;-67
2020/12/11 06:28:49;;;;;;;65.35;23.42;;;1.50;96.40;;;;;;4940952;28;20028;-67
2020/12/11 06:31:17;;;;;;;66.82;24.98;;;1.60;96.50;;;;;;4934731;28;20035;-67
2020/12/11 06:33:47;;;;;;;59.25;23.98;;;1.60;96.40;;;;;;4937465;28;20102;-67
2020/12/11 06:36:13;;;;;;;71.30;24.90;;;1.50;96.40;;;;;;4945740;28;20320;-66
2020/12/11 06:38:40;;;;;;;63.40;24.70;;;1.50;96.40;;;;;;4944175;28;20322;-67
2020/12/11 06:41:05;;;;;;;66.38;23.80;;;1.60;96.30;;;;;;4935170;28;20028;-67
2020/12/11 06:43:37;;;;;;;62.75;25.45;;;1.60;96.40;;;;;;4943819;28;20042;-67
2020/12/11 06:46:29;;;;;;;56.78;23.15;;;1.60;96.40;;;;;;4944838;28;20027;-67
2020/12/11 06:49:15;;;;;;;68.68;23.83;;;1.60;96.40;;;;;;4946635;28;20047;-67
2020/12/11 06:51:46;;;;;;;59.33;21.70;;;1.60;96.40;;;;;;4935273;28;20047;-67
2020/12/11 06:54:21;;;;;;;54.80;23.25;;;1.50;96.40;;;;;;4943790;28;20036;-66
2020/12/11 06:56:48;;;;;;;71.53;25.15;;;1.50;96.40;;;;;;4944988;29;20098;-67
2020/12/11 06:59:24;;;;;;;68.47;25.35;;;1.60;96.40;;;;;;4935864;28;20075;-67
2020/12/11 07:01:54;;;;;;;71.13;25.45;;;1.50;96.40;;;;;;4936510;28;20046;-67
2020/12/11 07:04:19;;;;;;;68.25;25.30;;;1.50;96.50;;;;;;4941340;28;20322;-67
2020/12/11 07:06:47;;;;;;;70.82;24.75;;;1.50;96.40;;;;;;4939352;28;20043;-67
2020/12/11 07:09:13;;;;;;;65.93;24.60;;;1.50;96.50;;;;;;4942800;28;20088;-67
2020/12/11 07:11:39;;;;;;;67.45;24.20;;;1.60;96.50;;;;;;4937612;28;20110;-66
2020/12/11 07:14:04;;;;;;;72.93;27.20;;;1.60;96.50;;;;;;4944121;28;20130;-66
2020/12/11 07:16:30;;;;;;;67.43;25.13;;;1.50;96.50;;;;;;4942355;28;20778;-67
2020/12/11 07:18:55;;;;;;;62.92;24.23;;;1.50;96.50;;;;;;4936855;28;20468;-67
2020/12/11 07:21:27;;;;;;;69.68;25.85;;;1.50;96.50;;;;;;4941664;28;20528;-67
2020/12/11 07:23:53;;;;;;;66.72;24.90;;;1.50;96.50;;;;;;4944872;28;20073;-67
2020/12/11 07:26:19;;;;;;;73.50;25.77;;;1.50;96.60;;;;;;4945986;28;20035;-67
2020/12/11 07:28:44;;;;;;;63.08;24.77;;;1.50;96.50;;;;;;4946692;28;20385;-67
2020/12/11 07:31:13;;;;;;;71.15;26.85;;;1.50;96.50;;;;;;4944403;28;20035;-67
2020/12/11 07:33:39;;;;;;;65.97;24.67;;;1.50;96.60;;;;;;4940782;28;20130;-67
2020/12/11 07:36:05;;;;;;;78.53;26.65;;;1.50;96.60;;;;;;4945400;28;20114;-67
2020/12/11 07:38:32;;;;;;;82.57;25.48;;;1.50;96.70;;;;;;4932811;28;20089;-67
2020/12/11 07:40:59;;;;;;;76.10;26.70;;;1.50;96.70;;;;;;4935048;28;20039;-66
2020/12/11 07:43:25;;;;;;;76.78;25.95;;;1.50;96.70;;;;;;4942535;29;20376;-67
2020/12/11 07:45:51;;;;;;;70.93;27.15;;;1.50;96.70;;;;;;4937073;28;20031;-67
2020/12/11 07:48:17;;;;;;;72.65;26.02;;;1.50;96.70;;;;;;4942872;28;20122;-67
2020/12/11 07:50:44;;;;;;;74.00;26.25;;;1.50;96.80;;;;;;4947740;28;20059;-67
2020/12/11 07:53:11;;;;;;;65.43;24.90;;;1.50;96.80;;;;;;4940657;28;20027;-67
2020/12/11 07:55:37;;;;;;;71.88;24.83;;;1.50;96.80;;;;;;4941395;28;20385;-67
2020/12/11 07:58:03;;;;;;;71.25;26.27;;;1.60;96.60;;;;;;4948286;28;20039;-67
2020/12/11 08:00:34;;;;;;;72.63;26.67;;;1.60;96.50;;;;;;4956018;28;20083;-67
2020/12/11 08:03:06;;;;;;;63.03;21.33;;;1.60;96.50;;;;;;4946654;28;20115;-67
2020/12/11 08:05:34;;;;;;;77.70;26.58;;;1.60;96.40;;;;;;4944565;28;20050;-66
2020/12/11 08:08:00;;;;;;;75.75;26.10;;;1.60;96.40;;;;;;4945392;28;20031;-66
2020/12/11 08:10:34;;;;;;;66.72;26.23;;;1.60;96.30;;;;;;4943088;28;20031;-67
2020/12/11 08:13:14;;;;;;;73.07;25.40;;;1.60;96.40;;;;;;4936227;28;20042;-67
2020/12/11 08:15:41;;;;;;;73.30;26.40;;;1.60;96.40;;;;;;4941087;28;20480;-67
2020/12/11 08:18:28;;;;;;;70.20;26.17;;;1.60;96.40;;;;;;4943124;28;20031;-67
2020/12/11 08:20:59;;;;;;;67.15;26.40;;;1.60;96.40;;;;;;4947482;28;20058;-67
2020/12/11 08:23:39;;;;;;;79.30;27.10;;;1.60;96.40;;;;;;4937213;28;20024;-67
2020/12/11 08:26:26;;;;;;;69.32;25.60;;;1.60;96.40;;;;;;4936978;28;20035;-67
2020/12/11 08:29:05;;;;;;;72.20;25.08;;;1.70;96.30;;;;;;4936642;28;20689;-68
2020/12/11 08:31:40;;;;;;;63.13;25.23;;;1.70;96.20;;;;;;4946467;28;20119;-68
2020/12/11 08:34:13;;;;;;;74.60;26.50;;;1.70;96.10;;;;;;4944809;28;20492;-68
2020/12/11 08:36:46;;;;;;;61.42;23.45;;;1.70;95.90;;;;;;4933449;28;20042;-68
2020/12/11 08:39:22;;;;;;;68.35;25.77;;;1.70;95.90;;;;;;4938781;28;21768;-68
2020/12/11 08:42:01;;;;;;;62.80;24.85;;;1.70;95.90;;;;;;4939213;28;20400;-67
2020/12/11 08:49:57;;;;;;;66.32;25.15;;;1.80;95.80;;;;;;4947617;29;20066;-68
2020/12/11 08:52:23;;;;;;;70.15;25.73;;;1.80;95.60;;;;;;4935244;28;20039;-68
2020/12/11 08:54:51;;;;;;;63.45;25.65;;;1.90;95.60;;;;;;4928377;28;20206;-67
2020/12/11 08:57:17;;;;;;;65.22;25.65;;;1.90;95.60;;;;;;4944053;28;20457;-68
2020/12/11 08:59:42;;;;;;;72.85;26.92;;;1.90;95.40;;;;;;4958054;28;20102;-68
2020/12/11 09:02:08;;;;;;;63.95;26.10;;;1.90;95.60;;;;;;4940069;28;20035;-67
2020/12/11 09:04:33;;;;;;;74.60;26.15;;;1.90;95.60;;;;;;4939420;28;20558;-68
2020/12/11 09:06:59;;;;;;;72.78;26.40;;;1.90;95.60;;;;;;4942285;28;20482;-68
2020/12/11 09:09:25;;;;;;;68.45;25.77;;;1.90;95.60;;;;;;4941405;28;20614;-68
2020/12/11 09:11:50;;;;;;;70.85;25.77;;;1.90;95.70;;;;;;4937773;28;20032;-68
2020/12/11 09:14:16;;;;;;;67.43;25.55;;;1.90;95.70;;;;;;4933428;28;20078;-67
2020/12/11 09:16:42;;;;;;;77.13;25.52;;;1.90;95.80;;;;;;5013237;28;20519;-67
2020/12/11 09:19:08;;;;;;;73.80;27.35;;;1.90;95.70;;;;;;4939112;28;20160;-67
2020/12/11 09:21:34;;;;;;;77.05;27.00;;;1.90;95.80;;;;;;4939469;28;20042;-67
2020/12/11 09:24:00;;;;;;;65.07;23.90;;;1.90;95.80;;;;;;4936827;28;20023;-67
2020/12/11 09:26:28;;;;;;;81.72;26.65;;;1.90;95.80;;;;;;4939743;28;20032;-67
2020/12/11 09:30:00;;;;;;;74.25;26.05;;;1.90;95.80;;;;;;4942349;28;20034;-68
2020/12/11 09:31:48;;;;;;;72.95;26.70;;;2.00;95.90;;;;;;4949697;28;20055;-67
2020/12/11 09:34:14;;;;;;;79.55;27.70;;;1.90;95.80;;;;;;4932324;28;20108;-68
2020/12/11 09:36:43;;;;;;;76.55;26.25;;;1.90;95.80;;;;;;4929044;28;20032;-68
2020/12/11 09:39:09;;;;;;;73.55;26.38;;;1.90;95.70;;;;;;4946929;28;20039;-68
2020/12/11 09:41:39;;;;;;;74.72;27.13;;;2.00;95.80;;;;;;4943157;28;20733;-67
2020/12/11 09:46:52;;;;;;;67.47;27.27;;;2.00;95.70;;;;;;4940664;28;20031;-67
2020/12/11 09:49:22;;;;;;;73.78;27.27;;;2.00;95.70;;;;;;4942734;28;20431;-67
2020/12/11 09:54:26;;;;;;;78.20;28.33;;;2.10;95.70;;;;;;4943859;28;20320;-68
2020/12/11 09:56:51;;;;;;;70.15;26.65;;;2.10;95.50;;;;;;4945645;28;20480;-68
2020/12/11 09:59:32;;;;;;;67.13;23.65;;;2.10;95.50;;;;;;4944439;28;20046;-67
2020/12/11 10:04:41;;;;;;;68.57;25.75;;;2.10;95.40;;;;;;4945510;29;20526;-67
2020/12/11 10:07:07;;;;;;;60.08;23.83;;;2.10;95.30;;;;;;4944718;28;20032;-67
2020/12/11 10:09:32;;;;;;;67.13;24.23;;;2.10;95.10;;;;;;4944807;28;20135;-68
2020/12/11 10:12:00;;;;;;;66.72;24.77;;;2.10;95.10;;;;;;4944396;28;20027;-66
2020/12/11 10:14:31;;;;;;;63.55;25.73;;;2.20;95.10;;;;;;4927936;29;20038;-67
2020/12/11 10:16:57;;;;;;;61.63;25.67;;;2.20;95.10;;;;;;4945382;28;20036;-67
2020/12/11 10:19:23;;;;;;;65.53;24.63;;;2.20;95.00;;;;;;4942683;28;20108;-67
2020/12/11 10:21:53;;;;;;;60.88;22.70;;;2.30;95.00;;;;;;4942038;28;20349;-68
2020/12/11 10:24:19;;;;;;;71.32;24.40;;;2.30;94.70;;;;;;4946364;28;20034;-67
2020/12/11 10:26:46;;;;;;;66.47;25.35;;;2.30;94.70;;;;;;4933675;28;20038;-67
2020/12/11 10:29:12;;;;;;;60.45;23.70;;;2.40;94.70;;;;;;4944316;28;20118;-67
2020/12/11 10:31:44;;;;;;;58.38;23.05;;;2.40;94.50;;;;;;4931897;28;20032;-67
2020/12/11 10:34:11;;;;;;;56.20;24.13;;;2.40;94.50;;;;;;4930354;28;20565;-67
2020/12/11 10:36:38;;;;;;;58.33;25.05;;;2.40;94.50;;;;;;4932062;28;20046;-68
2020/12/11 10:39:04;;;;;;;52.85;22.33;;;2.40;94.10;;;;;;4936405;28;20031;-67
2020/12/11 10:41:30;;;;;;;60.75;23.50;;;2.50;94.40;;;;;;4942014;28;20095;-67
2020/12/11 10:43:56;;;;;;;61.28;23.95;;;2.50;94.10;;;;;;4944603;28;20101;-67
2020/12/11 10:46:21;;;;;;;60.08;22.08;;;2.60;94.10;;;;;;4943333;28;20069;-67
2020/12/11 10:48:47;;;;;;;58.88;23.52;;;2.60;94.00;;;;;;4943181;28;20400;-67
2020/12/11 10:51:14;;;;;;;54.17;21.83;;;2.60;94.10;;;;;;4945227;28;20039;-67
2020/12/11 10:53:41;;;;;;;54.22;21.58;;;2.60;94.10;;;;;;4937641;28;20411;-67
2020/12/11 10:56:08;;;;;;;58.60;21.90;;;2.60;94.10;;;;;;4935621;28;20103;-66
2020/12/11 10:58:34;;;;;;;55.28;22.67;;;2.60;94.00;;;;;;4931849;28;20146;-68
2020/12/11 11:01:03;;;;;;;52.13;21.95;;;2.50;93.80;;;;;;4948395;28;20123;-68
2020/12/11 11:03:30;;;;;;;47.45;21.67;;;2.60;93.90;;;;;;4938418;28;20468;-68
2020/12/11 11:05:57;;;;;;;52.05;21.08;;;2.60;93.90;;;;;;4947656;28;20037;-68
2020/12/11 11:08:32;;;;;;;52.38;22.55;;;2.60;93.80;;;;;;4942219;28;20054;-67
2020/12/11 11:10:58;;;;;;;44.22;20.75;;;2.50;93.90;;;;;;4949397;28;20019;-67
2020/12/11 11:13:36;;;;;;;56.40;23.02;;;2.50;93.80;;;;;;4944751;28;20031;-67
2020/12/11 11:16:03;;;;;;;53.67;22.55;;;2.40;93.90;;;;;;4948039;28;20105;-67
2020/12/11 11:18:43;;;;;;;44.97;22.20;;;2.40;93.90;;;;;;4937373;28;20034;-67
2020/12/11 11:23:58;;;;;;;50.80;22.00;;;2.50;94.10;;;;;;4943776;28;20344;-67
2020/12/11 11:26:40;;;;;;;48.35;21.73;;;2.50;94.10;;;;;;4943569;28;20034;-67
2020/12/11 11:29:06;;;;;;;48.95;21.45;;;2.60;94.10;;;;;;4936548;28;20205;-68
2020/12/11 11:31:31;;;;;;;47.83;20.90;;;2.50;93.80;;;;;;4935894;28;20162;-67
2020/12/11 11:34:01;;;;;;;51.85;22.27;;;2.50;94.00;;;;;;4938149;28;20028;-67
2020/12/11 11:36:27;;;;;;;55.53;21.45;;;2.50;93.90;;;;;;4935262;28;20023;-66
2020/12/11 11:38:53;;;;;;;52.05;21.00;;;2.50;93.80;;;;;;4944649;28;20066;-67
2020/12/11 11:46:48;;;;;;;46.22;20.38;;;2.60;93.60;;;;;;4946370;28;20115;-67
2020/12/11 11:49:18;;;;;;;51.22;21.90;;;2.60;93.70;;;;;;4943362;28;20031;-67
2020/12/11 11:51:58;;;;;;;52.58;22.08;;;2.70;93.50;;;;;;4941096;28;20038;-68
2020/12/11 11:54:24;;;;;;;54.78;21.42;;;2.70;93.40;;;;;;4946091;28;20047;-67
2020/12/11 11:56:49;;;;;;;43.05;21.05;;;2.70;93.40;;;;;;4946256;28;20039;-67
2020/12/11 11:59:15;;;;;;;55.78;21.08;;;2.70;93.40;;;;;;4937131;28;20083;-68
2020/12/11 12:01:41;;;;;;;47.70;21.63;;;2.80;93.50;;;;;;4939625;28;20031;-67
2020/12/11 12:04:06;;;;;;;44.88;20.05;;;2.80;93.30;;;;;;4938156;28;20040;-68
2020/12/11 12:06:32;;;;;;;54.65;21.38;;;2.80;93.40;;;;;;4946226;28;20595;-68
2020/12/11 12:08:57;;;;;;;48.55;21.90;;;2.80;93.30;;;;;;4934242;28;20035;-68
2020/12/11 12:11:23;;;;;;;57.58;22.13;;;2.80;93.10;;;;;;4941372;28;20034;-68
2020/12/11 12:13:48;;;;;;;48.83;20.77;;;2.80;93.20;;;;;;4945191;28;20035;-68
2020/12/11 12:16:16;;;;;;;50.75;21.55;;;2.80;93.20;;;;;;4945214;28;20091;-68
2020/12/11 12:18:44;;;;;;;50.08;21.85;;;2.80;92.90;;;;;;4946016;28;20096;-68
2020/12/11 12:21:23;;;;;;;56.80;21.73;;;2.80;93.10;;;;;;4931195;28;20299;-68
2020/12/11 12:28:59;;;;;;;49.92;21.35;;;2.80;93.10;;;;;;4942154;28;20034;-68
2020/12/11 12:31:38;;;;;;;45.70;19.92;;;2.90;93.00;;;;;;4947428;28;20019;-68
2020/12/11 12:34:27;;;;;;;43.55;19.80;;;2.80;92.70;;;;;;4945777;28;20035;-68
2020/12/11 12:44:44;;;;;;;43.65;20.48;;;2.80;92.70;;;;;;4936118;29;20035;-68
2020/12/11 12:47:10;;;;;;;48.33;21.38;;;2.80;92.80;;;;;;4928751;28;20035;-67
2020/12/11 12:49:36;;;;;;;45.45;20.55;;;2.80;92.80;;;;;;4946019;28;20610;-67
2020/12/11 12:52:01;;;;;;;46.50;20.85;;;2.80;92.90;;;;;;4944860;28;20347;-68
2020/12/11 12:54:27;;;;;;;47.20;20.33;;;2.80;92.70;;;;;;4945090;28;20143;-68
2020/12/11 12:56:58;;;;;;;42.95;20.55;;;2.80;93.00;;;;;;4939511;28;20039;-68
2020/12/11 13:07:21;;;;;;;40.53;20.35;;;2.70;93.10;;;;;;4939704;28;20036;-68
2020/12/11 13:09:47;;;;;;;50.75;19.80;;;2.70;92.80;;;;;;4927372;28;20092;-68
2020/12/11 13:12:12;;;;;;;48.78;21.13;;;2.70;93.00;;;;;;4938050;28;20031;-68
2020/12/11 13:14:38;;;;;;;46.10;19.75;;;2.70;92.90;;;;;;4946771;28;20049;-68
2020/12/11 13:17:05;;;;;;;47.65;20.45;;;2.80;92.80;;;;;;4936646;28;20027;-68
2020/12/11 13:19:33;;;;;;;48.58;21.05;;;2.80;92.90;;;;;;4943063;29;20138;-68
2020/12/11 13:27:17;;;;;;;39.72;19.88;;;2.80;92.90;;;;;;4934430;28;20030;-68